Time;durP1;ratioP1;P1;durP2;ratioP2;P2;SDS_P1;SDS_P2;PMS_P1;PMS_P2;Temp;Humidity;BMP_temperature;BMP_pressure;BME280_temperature;BME280_humidity;BME280_pressure;Samples;Min_cycle;Max_cycle;Signal;HPM_P1;HPM_P2
2023/06/14 00:01:20;;;;;;;4.63;3.78;;;12.10;99.90;;;;;;4998592;28;20109;-78
2023/06/14 00:03:47;;;;;;;8.05;4.00;;;12.10;99.90;;;;;;4997582;28;20108;-78
2023/06/14 00:06:13;;;;;;;5.88;4.00;;;12.10;99.90;;;;;;4996270;28;20104;-78
2023/06/14 00:08:39;;;;;;;5.90;4.00;;;12.00;99.90;;;;;;4999273;28;20069;-78
2023/06/14 00:11:05;;;;;;;8.95;3.75;;;12.00;99.90;;;;;;4997282;28;20037;-79
2023/06/14 00:13:31;;;;;;;6.75;3.97;;;11.90;99.90;;;;;;4997802;28;20562;-79
2023/06/14 00:15:57;;;;;;;10.13;3.85;;;11.90;99.90;;;;;;4997928;28;20045;-79
2023/06/14 00:18:26;;;;;;;7.07;4.10;;;11.90;99.90;;;;;;4998030;28;20046;-78
2023/06/14 00:20:52;;;;;;;8.25;4.55;;;11.90;99.90;;;;;;4997269;28;20469;-78
2023/06/14 00:23:18;;;;;;;9.93;4.05;;;11.80;99.90;;;;;;4996832;28;20109;-78
2023/06/14 00:25:43;;;;;;;6.75;3.97;;;11.80;99.90;;;;;;4997661;28;20038;-78
2023/06/14 00:28:09;;;;;;;7.40;4.18;;;11.80;99.90;;;;;;4997416;28;20068;-78
2023/06/14 00:30:35;;;;;;;6.28;4.00;;;11.80;99.90;;;;;;4997785;28;20512;-78
2023/06/14 00:33:00;;;;;;;7.30;4.18;;;11.80;99.90;;;;;;4997204;28;20081;-79
2023/06/14 00:35:26;;;;;;;7.22;4.25;;;11.70;99.90;;;;;;4997285;28;20056;-78
2023/06/14 00:37:52;;;;;;;7.60;3.85;;;11.70;99.90;;;;;;4997814;28;20030;-78
2023/06/14 00:40:17;;;;;;;7.25;3.63;;;11.70;99.90;;;;;;4997234;28;20061;-78
2023/06/14 00:42:43;;;;;;;11.57;4.45;;;11.60;99.90;;;;;;4996595;28;20038;-78
2023/06/14 00:45:12;;;;;;;7.05;4.00;;;11.60;99.90;;;;;;4997816;28;20026;-78
2023/06/14 00:47:40;;;;;;;7.75;4.25;;;11.50;99.90;;;;;;4997029;28;20402;-78
2023/06/14 00:50:07;;;;;;;7.70;3.83;;;11.50;99.90;;;;;;4997298;28;20041;-78
2023/06/14 00:52:34;;;;;;;6.47;3.97;;;11.40;99.90;;;;;;4996769;28;20107;-78
2023/06/14 00:55:00;;;;;;;6.45;4.05;;;11.40;99.90;;;;;;4996314;28;20502;-78
2023/06/14 00:57:27;;;;;;;8.87;4.17;;;11.30;99.90;;;;;;4996663;28;20030;-78
2023/06/14 00:59:54;;;;;;;8.68;4.60;;;11.30;99.90;;;;;;4996268;28;20052;-78
2023/06/14 01:02:20;;;;;;;6.13;3.60;;;11.20;99.90;;;;;;4996047;28;20420;-78
2023/06/14 01:04:50;;;;;;;7.07;4.10;;;11.20;99.90;;;;;;4996937;28;20063;-78
2023/06/14 01:07:21;;;;;;;8.67;4.17;;;11.10;99.90;;;;;;4996003;28;20249;-78
2023/06/14 01:09:47;;;;;;;8.23;4.23;;;11.10;99.90;;;;;;4996235;28;20073;-78
2023/06/14 01:12:28;;;;;;;7.93;4.30;;;11.10;99.90;;;;;;4997045;28;20137;-78
2023/06/14 01:14:55;;;;;;;10.03;4.07;;;11.10;99.90;;;;;;4996794;28;20045;-78
2023/06/14 01:17:23;;;;;;;7.10;4.37;;;11.00;99.90;;;;;;4996558;28;20053;-78
2023/06/14 01:19:48;;;;;;;7.53;4.10;;;11.00;99.90;;;;;;4996981;28;20034;-78
2023/06/14 01:22:14;;;;;;;6.73;3.87;;;11.00;99.90;;;;;;4997084;28;20499;-78
2023/06/14 01:24:44;;;;;;;6.67;4.13;;;10.90;99.90;;;;;;4997673;28;20991;-78
2023/06/14 01:27:10;;;;;;;7.13;4.33;;;10.90;99.90;;;;;;4996087;28;20037;-78
2023/06/14 01:29:36;;;;;;;8.70;4.20;;;10.90;99.90;;;;;;4995671;28;20033;-78
2023/06/14 01:32:03;;;;;;;8.05;4.40;;;10.90;99.90;;;;;;4997069;28;20038;-78
2023/06/14 01:34:28;;;;;;;6.27;4.43;;;10.90;99.90;;;;;;4995971;28;20046;-78
2023/06/14 01:36:54;;;;;;;6.40;4.57;;;10.90;99.90;;;;;;4995910;28;20553;-78
2023/06/14 01:39:21;;;;;;;9.83;4.17;;;10.90;99.90;;;;;;4996001;28;20041;-78
2023/06/14 01:41:49;;;;;;;11.38;4.90;;;10.90;99.90;;;;;;4996459;28;20148;-78
2023/06/14 01:44:16;;;;;;;8.03;4.47;;;10.80;99.90;;;;;;4995580;28;20478;-78
2023/06/14 01:46:43;;;;;;;7.10;4.28;;;10.70;99.90;;;;;;4995245;28;20033;-78
2023/06/14 01:49:09;;;;;;;9.63;4.07;;;10.60;99.90;;;;;;4996786;28;20042;-78
2023/06/14 01:51:35;;;;;;;7.13;4.20;;;10.60;99.90;;;;;;4995165;28;20089;-78
2023/06/14 01:54:01;;;;;;;5.50;4.33;;;10.60;99.90;;;;;;4996297;28;20038;-78
2023/06/14 01:56:26;;;;;;;8.70;4.33;;;10.60;99.90;;;;;;4996021;28;20277;-78
2023/06/14 01:58:53;;;;;;;7.63;4.50;;;10.50;99.90;;;;;;4997513;28;20030;-78
2023/06/14 02:01:21;;;;;;;8.57;4.67;;;10.50;99.90;;;;;;4995637;28;20037;-78
2023/06/14 02:03:47;;;;;;;9.10;4.20;;;10.40;99.90;;;;;;4995259;28;20128;-78
2023/06/14 02:06:12;;;;;;;6.30;4.00;;;10.40;99.90;;;;;;4996153;28;20034;-79
2023/06/14 02:08:38;;;;;;;7.00;4.37;;;10.30;99.90;;;;;;4996177;28;20034;-78
2023/06/14 02:11:03;;;;;;;6.97;4.40;;;10.30;99.90;;;;;;4996295;28;20041;-78
2023/06/14 02:13:29;;;;;;;9.10;4.20;;;10.20;99.90;;;;;;4996031;28;20065;-78
2023/06/14 02:15:54;;;;;;;9.77;4.40;;;10.20;99.90;;;;;;4994851;28;20038;-78
2023/06/14 02:18:21;;;;;;;7.63;4.17;;;10.20;99.90;;;;;;4996053;28;20112;-78
2023/06/14 02:20:47;;;;;;;6.80;4.10;;;10.20;99.90;;;;;;4995677;28;20119;-78
2023/06/14 02:23:13;;;;;;;8.33;4.43;;;10.10;99.90;;;;;;4996761;28;20030;-78
2023/06/14 02:25:40;;;;;;;9.73;4.40;;;10.10;99.90;;;;;;4994885;28;20588;-78
2023/06/14 02:28:05;;;;;;;9.00;4.57;;;10.10;99.90;;;;;;4996354;28;20030;-78
2023/06/14 02:30:31;;;;;;;7.10;4.40;;;10.10;99.90;;;;;;4995562;28;20057;-78
2023/06/14 02:32:57;;;;;;;10.03;4.67;;;10.10;99.90;;;;;;4994349;28;20099;-78
2023/06/14 02:35:26;;;;;;;13.67;5.37;;;10.10;99.90;;;;;;4994923;28;20133;-78
2023/06/14 02:37:53;;;;;;;6.50;4.40;;;10.10;99.90;;;;;;4994589;28;20058;-78
2023/06/14 02:40:19;;;;;;;5.93;4.60;;;10.10;99.90;;;;;;4994725;28;20135;-78
2023/06/14 02:42:45;;;;;;;9.20;4.77;;;10.10;99.90;;;;;;4995596;28;20033;-78
2023/06/14 02:45:11;;;;;;;10.13;4.80;;;10.00;99.90;;;;;;4997252;28;20505;-78
2023/06/14 02:47:36;;;;;;;10.57;5.13;;;10.00;99.90;;;;;;4999176;28;20072;-78
2023/06/14 02:50:02;;;;;;;8.37;5.00;;;10.00;99.90;;;;;;4998443;28;20549;-78
2023/06/14 02:52:28;;;;;;;12.37;4.93;;;9.90;99.90;;;;;;4999002;28;20770;-78
2023/06/14 02:54:54;;;;;;;6.67;4.63;;;9.90;99.90;;;;;;4999139;28;20108;-78
2023/06/14 02:57:20;;;;;;;8.43;4.90;;;9.80;99.90;;;;;;4998453;28;20038;-78
2023/06/14 02:59:46;;;;;;;7.23;5.10;;;9.80;99.90;;;;;;4998887;28;20479;-78
2023/06/14 03:02:11;;;;;;;12.17;5.03;;;9.70;99.90;;;;;;4998681;28;20079;-78
2023/06/14 03:04:40;;;;;;;10.30;5.07;;;9.70;99.90;;;;;;4999451;28;20121;-79
2023/06/14 03:07:08;;;;;;;8.47;4.97;;;9.60;99.90;;;;;;4997423;28;20045;-78
2023/06/14 03:09:36;;;;;;;6.83;4.63;;;9.60;99.90;;;;;;4999402;28;20038;-78
2023/06/14 03:12:02;;;;;;;9.57;4.77;;;9.60;99.90;;;;;;4999198;28;20037;-78
2023/06/14 03:14:30;;;;;;;12.87;4.53;;;9.50;99.90;;;;;;4999402;28;20033;-78
2023/06/14 03:16:56;;;;;;;8.10;4.70;;;9.50;99.90;;;;;;4997916;28;20033;-78
2023/06/14 03:19:22;;;;;;;9.63;5.20;;;9.40;99.90;;;;;;4997915;28;20080;-78
2023/06/14 03:21:49;;;;;;;7.87;4.80;;;9.40;99.90;;;;;;4998691;28;20045;-78
2023/06/14 03:24:16;;;;;;;7.60;4.83;;;9.40;99.90;;;;;;4997842;28;20034;-77
2023/06/14 03:26:42;;;;;;;8.93;4.90;;;9.40;99.90;;;;;;4997925;28;20045;-78
2023/06/14 03:29:07;;;;;;;6.33;4.80;;;9.40;99.90;;;;;;4999383;28;20034;-78
2023/06/14 03:31:34;;;;;;;10.00;4.80;;;9.40;99.90;;;;;;5000456;28;20033;-78
2023/06/14 03:34:00;;;;;;;15.30;5.37;;;9.40;99.90;;;;;;4999439;28;20467;-78
2023/06/14 03:36:27;;;;;;;12.83;5.47;;;9.40;99.90;;;;;;4998912;28;20038;-78
2023/06/14 03:38:53;;;;;;;12.93;5.23;;;9.40;99.90;;;;;;4998982;28;20403;-78
2023/06/14 03:41:19;;;;;;;15.43;4.93;;;9.40;99.90;;;;;;4998180;28;20044;-78
2023/06/14 03:43:44;;;;;;;14.87;5.67;;;9.40;99.90;;;;;;4998148;28;20824;-78
2023/06/14 03:46:10;;;;;;;11.10;5.20;;;9.40;99.90;;;;;;4997805;28;20150;-78
2023/06/14 03:48:35;;;;;;;9.87;4.87;;;9.40;99.90;;;;;;4998217;28;20036;-78
2023/06/14 03:51:02;;;;;;;16.43;5.80;;;9.40;99.90;;;;;;4997492;28;20033;-78
2023/06/14 03:53:29;;;;;;;9.70;5.10;;;9.40;99.90;;;;;;4997148;28;20044;-78
2023/06/14 03:55:54;;;;;;;13.70;6.57;;;9.50;99.90;;;;;;4997616;28;20046;-78
2023/06/14 03:58:20;;;;;;;9.63;5.33;;;9.40;99.90;;;;;;4997904;28;20042;-77
2023/06/14 04:00:46;;;;;;;12.93;5.43;;;9.50;99.90;;;;;;4997377;28;20430;-78
2023/06/14 04:03:13;;;;;;;9.97;5.60;;;9.50;99.90;;;;;;4997485;28;20030;-78
2023/06/14 04:05:41;;;;;;;8.40;5.17;;;9.50;99.90;;;;;;4996638;28;20816;-78
2023/06/14 04:08:08;;;;;;;10.13;5.70;;;9.50;99.90;;;;;;4997293;28;20160;-78
2023/06/14 04:10:34;;;;;;;10.67;5.23;;;9.50;99.90;;;;;;4998031;28;20211;-78
2023/06/14 04:13:00;;;;;;;11.03;4.90;;;9.60;99.90;;;;;;4997816;28;20585;-78
2023/06/14 04:15:28;;;;;;;12.37;5.53;;;9.60;99.90;;;;;;4998185;28;20095;-78
2023/06/14 04:17:57;;;;;;;15.30;5.50;;;9.70;99.90;;;;;;4997439;28;20034;-78
2023/06/14 04:20:24;;;;;;;12.07;5.07;;;9.70;99.90;;;;;;4997651;28;20045;-78
2023/06/14 04:22:49;;;;;;;15.73;5.80;;;9.80;99.90;;;;;;4996855;28;20037;-78
2023/06/14 04:25:15;;;;;;;15.37;5.77;;;9.80;99.90;;;;;;4996951;28;20042;-78
2023/06/14 04:27:41;;;;;;;8.27;5.47;;;9.90;99.90;;;;;;4996617;28;20043;-78
2023/06/14 04:30:07;;;;;;;8.80;5.47;;;10.00;99.90;;;;;;4997523;28;20482;-77
2023/06/14 04:32:33;;;;;;;9.17;4.77;;;10.10;99.90;;;;;;4995429;28;20122;-78
2023/06/14 04:35:01;;;;;;;9.23;5.20;;;10.10;99.90;;;;;;4996902;28;20130;-77
2023/06/14 04:37:28;;;;;;;13.83;5.90;;;10.20;99.90;;;;;;4997327;28;20156;-77
2023/06/14 04:39:55;;;;;;;9.90;5.17;;;10.30;99.90;;;;;;4996432;28;20034;-77
2023/06/14 04:42:24;;;;;;;17.03;5.77;;;10.40;99.90;;;;;;4997071;28;20044;-77
2023/06/14 04:44:51;;;;;;;14.33;5.60;;;10.60;99.90;;;;;;4996318;28;20030;-77
2023/06/14 04:47:17;;;;;;;29.00;6.33;;;10.70;99.90;;;;;;4995514;28;20099;-77
2023/06/14 04:49:43;;;;;;;17.03;5.73;;;10.80;99.90;;;;;;4996713;28;20065;-78
2023/06/14 04:52:10;;;;;;;13.97;5.73;;;10.90;99.90;;;;;;4995046;28;20133;-77
2023/06/14 04:54:53;;;;;;;9.33;6.13;;;11.00;99.90;;;;;;4994517;28;20042;-77
2023/06/14 04:57:22;;;;;;;10.73;5.77;;;11.10;99.90;;;;;;4995919;28;20045;-77
2023/06/14 04:59:48;;;;;;;9.90;5.47;;;11.30;99.90;;;;;;4995838;28;20569;-78
2023/06/14 05:02:14;;;;;;;12.03;5.40;;;11.40;99.90;;;;;;4996464;28;20047;-77
2023/06/14 05:04:40;;;;;;;10.87;5.90;;;11.50;99.90;;;;;;4997156;28;20037;-77
2023/06/14 05:07:09;;;;;;;13.43;6.27;;;11.50;99.90;;;;;;4994636;28;20026;-77
2023/06/14 05:09:35;;;;;;;13.23;5.68;;;11.60;99.90;;;;;;4994901;28;20038;-78
2023/06/14 05:12:01;;;;;;;9.25;5.50;;;11.70;99.90;;;;;;4994778;28;20033;-78
2023/06/14 05:14:27;;;;;;;9.77;5.82;;;11.80;99.90;;;;;;4996406;28;20124;-77
2023/06/14 05:16:53;;;;;;;12.23;5.97;;;11.90;99.90;;;;;;4994984;28;20033;-77
2023/06/14 05:19:20;;;;;;;9.50;5.47;;;12.00;99.90;;;;;;4996192;28;20066;-77
2023/06/14 05:21:47;;;;;;;12.45;5.80;;;12.10;99.90;;;;;;4995519;28;20132;-78
2023/06/14 05:24:13;;;;;;;16.27;5.90;;;12.20;99.90;;;;;;4996270;28;20159;-77
2023/06/14 05:26:39;;;;;;;12.30;6.20;;;12.40;99.90;;;;;;4994792;28;20501;-78
2023/06/14 05:29:04;;;;;;;15.52;5.85;;;12.50;99.90;;;;;;4994808;28;20029;-78
2023/06/14 05:31:30;;;;;;;12.98;5.75;;;12.70;99.90;;;;;;4995455;28;20049;-78
2023/06/14 05:33:55;;;;;;;14.70;5.93;;;12.90;99.90;;;;;;4996069;28;20406;-72
2023/06/14 05:36:21;;;;;;;13.07;5.70;;;13.00;99.90;;;;;;4994890;28;20535;-72
2023/06/14 05:38:46;;;;;;;18.65;7.10;;;13.20;99.90;;;;;;4995930;28;20057;-72
2023/06/14 05:41:12;;;;;;;18.17;5.68;;;13.40;99.90;;;;;;4995856;28;20144;-72
2023/06/14 05:43:38;;;;;;;16.05;5.75;;;13.50;99.90;;;;;;4995856;28;20034;-73
2023/06/14 05:46:03;;;;;;;11.70;5.65;;;13.70;99.90;;;;;;4995036;28;20037;-73
2023/06/14 05:48:33;;;;;;;22.00;5.72;;;13.80;99.90;;;;;;4996328;28;20030;-72
2023/06/14 05:50:58;;;;;;;10.77;5.15;;;14.00;99.90;;;;;;4994719;28;20096;-72
2023/06/14 05:53:24;;;;;;;12.52;5.15;;;14.20;99.90;;;;;;4995162;28;20026;-73
2023/06/14 05:55:53;;;;;;;7.68;5.40;;;14.40;99.90;;;;;;4995285;28;20046;-73
2023/06/14 05:58:18;;;;;;;11.45;5.20;;;14.50;99.90;;;;;;4995770;28;20695;-73
2023/06/14 06:00:45;;;;;;;7.50;5.07;;;14.70;99.90;;;;;;4994775;28;20038;-73
2023/06/14 06:03:12;;;;;;;12.88;5.22;;;14.80;99.90;;;;;;4994763;28;20094;-72
2023/06/14 06:05:38;;;;;;;12.25;4.65;;;15.00;99.90;;;;;;4994901;28;20050;-72
2023/06/14 06:08:04;;;;;;;8.48;4.60;;;15.10;99.90;;;;;;4992313;28;20033;-73
2023/06/14 06:10:29;;;;;;;12.10;4.70;;;15.30;99.90;;;;;;4994041;28;20038;-73
2023/06/14 06:12:55;;;;;;;19.58;5.38;;;15.40;99.90;;;;;;4996770;28;20022;-72
2023/06/14 06:15:21;;;;;;;12.20;5.35;;;15.50;99.90;;;;;;4994125;28;20129;-72
2023/06/14 06:17:46;;;;;;;12.75;5.45;;;15.70;99.90;;;;;;4993887;28;20083;-72
2023/06/14 06:20:12;;;;;;;12.98;5.38;;;15.80;99.90;;;;;;4995123;28;20473;-73
2023/06/14 06:22:39;;;;;;;9.85;4.38;;;16.00;99.90;;;;;;4999869;28;20261;-73
2023/06/14 06:25:06;;;;;;;12.18;4.30;;;16.10;99.90;;;;;;4998064;28;20052;-73
2023/06/14 06:27:31;;;;;;;6.80;3.80;;;16.20;99.90;;;;;;4999130;28;20045;-73
2023/06/14 06:29:57;;;;;;;15.23;4.50;;;16.30;99.90;;;;;;4998314;28;20081;-72
2023/06/14 06:32:22;;;;;;;8.95;4.20;;;16.50;99.90;;;;;;4999257;28;20425;-72
2023/06/14 06:34:48;;;;;;;12.38;4.25;;;16.60;99.90;;;;;;4996395;28;20069;-73
2023/06/14 06:37:14;;;;;;;7.35;4.07;;;16.70;99.90;;;;;;4998259;28;20026;-77
2023/06/14 06:39:39;;;;;;;6.55;3.75;;;16.90;99.90;;;;;;4997998;28;20034;-78
2023/06/14 06:42:06;;;;;;;7.05;4.13;;;17.00;99.90;;;;;;4999250;28;20026;-77
2023/06/14 06:44:32;;;;;;;14.43;4.60;;;17.10;99.90;;;;;;4997604;28;20597;-77
2023/06/14 06:46:58;;;;;;;6.15;3.80;;;17.20;99.90;;;;;;4998066;28;20042;-76
2023/06/14 06:49:24;;;;;;;7.05;3.60;;;17.30;99.90;;;;;;4998064;28;20097;-77
2023/06/14 06:52:00;;;;;;;10.32;3.90;;;17.40;99.90;;;;;;4998374;28;20042;-77
2023/06/14 06:54:26;;;;;;;7.97;3.55;;;17.50;99.90;;;;;;4998752;28;20477;-77
2023/06/14 06:56:51;;;;;;;10.98;3.58;;;17.60;99.90;;;;;;4997628;28;20092;-77
2023/06/14 06:59:17;;;;;;;8.32;3.45;;;17.70;99.90;;;;;;4998286;28;20034;-77
2023/06/14 07:01:42;;;;;;;9.65;3.58;;;17.80;99.90;;;;;;4998687;28;20035;-77
2023/06/14 07:04:08;;;;;;;5.13;3.00;;;18.00;99.90;;;;;;4997346;28;20031;-77
2023/06/14 07:06:34;;;;;;;7.78;3.60;;;18.10;99.90;;;;;;4997172;28;20030;-77
2023/06/14 07:09:01;;;;;;;8.70;3.33;;;18.20;99.90;;;;;;4998551;28;20492;-77
2023/06/14 07:11:27;;;;;;;7.50;3.80;;;18.10;99.90;;;;;;5000396;28;20109;-78
2023/06/14 07:13:52;;;;;;;8.68;3.55;;;18.20;99.90;;;;;;4998481;28;20064;-77
2023/06/14 07:16:18;;;;;;;8.40;3.60;;;18.20;99.90;;;;;;4996737;28;20628;-77
2023/06/14 07:18:44;;;;;;;6.22;3.03;;;18.20;99.90;;;;;;4998561;28;20029;-77
2023/06/14 07:21:10;;;;;;;11.55;4.05;;;18.20;99.90;;;;;;4997045;28;20044;-77
2023/06/14 07:23:35;;;;;;;11.02;4.07;;;18.30;99.90;;;;;;4997877;28;20443;-77
2023/06/14 07:26:01;;;;;;;8.10;3.65;;;18.30;99.90;;;;;;4997887;28;20037;-76
2023/06/14 07:28:27;;;;;;;10.25;3.97;;;18.30;99.90;;;;;;4997365;28;20045;-77
2023/06/14 07:30:52;;;;;;;8.77;3.72;;;18.40;99.90;;;;;;4997387;28;20069;-78
2023/06/14 07:33:18;;;;;;;7.80;3.42;;;18.50;99.90;;;;;;4997285;28;20120;-77
2023/06/14 07:35:43;;;;;;;7.55;3.85;;;18.60;99.90;;;;;;4997656;28;20061;-77
2023/06/14 07:38:09;;;;;;;8.15;4.60;;;18.70;99.90;;;;;;4998860;28;20026;-77
2023/06/14 07:40:34;;;;;;;6.90;3.92;;;18.80;99.90;;;;;;4996069;28;20065;-77
2023/06/14 07:43:02;;;;;;;6.50;3.90;;;18.90;99.90;;;;;;4997562;28;20030;-77
2023/06/14 07:45:27;;;;;;;8.10;3.35;;;18.90;99.90;;;;;;4984874;28;20037;-77
2023/06/14 07:47:53;;;;;;;12.18;3.50;;;18.90;99.90;;;;;;4997978;28;20032;-77
2023/06/14 07:50:18;;;;;;;7.53;3.70;;;19.00;99.90;;;;;;4997679;28;20037;-77
2023/06/14 07:52:45;;;;;;;7.68;3.42;;;19.10;99.90;;;;;;4996965;28;20125;-77
2023/06/14 07:55:10;;;;;;;6.40;3.97;;;19.20;99.90;;;;;;4997260;28;20049;-77
2023/06/14 07:57:36;;;;;;;7.85;4.18;;;19.40;99.90;;;;;;4997172;28;20033;-77
2023/06/14 08:00:06;;;;;;;7.85;3.90;;;19.40;99.90;;;;;;4996727;28;20034;-77
2023/06/14 08:02:31;;;;;;;8.57;3.75;;;19.40;99.90;;;;;;4997828;28;20022;-78
2023/06/14 08:04:57;;;;;;;9.52;3.78;;;19.50;99.90;;;;;;4995912;28;20666;-77
2023/06/14 08:07:22;;;;;;;10.63;3.80;;;19.50;99.90;;;;;;4997667;28;20033;-77
2023/06/14 08:09:48;;;;;;;7.60;3.65;;;19.70;99.90;;;;;;4997024;28;20030;-77
2023/06/14 08:12:13;;;;;;;8.27;3.70;;;19.70;99.90;;;;;;4997685;28;20034;-76
2023/06/14 08:14:40;;;;;;;8.20;3.42;;;19.80;99.90;;;;;;4996877;28;21456;-77
2023/06/14 08:17:05;;;;;;;8.57;3.40;;;19.80;99.90;;;;;;4994951;28;20092;-77
2023/06/14 08:19:31;;;;;;;7.70;2.85;;;19.80;99.90;;;;;;4995824;28;20835;-77
2023/06/14 08:21:57;;;;;;;6.90;3.30;;;19.90;99.90;;;;;;4997590;28;21511;-77
2023/06/14 08:24:26;;;;;;;7.53;3.45;;;19.90;99.90;;;;;;4996364;28;20450;-77
2023/06/14 08:26:52;;;;;;;8.38;3.30;;;20.00;99.90;;;;;;4995745;28;20505;-78
2023/06/14 08:29:18;;;;;;;6.93;3.08;;;20.00;99.90;;;;;;4997150;28;20132;-73
2023/06/14 08:31:44;;;;;;;6.43;3.47;;;20.10;98.40;;;;;;4996353;28;20390;-73
2023/06/14 08:34:09;;;;;;;7.68;3.42;;;20.10;98.10;;;;;;4995816;28;20041;-73
2023/06/14 08:36:35;;;;;;;7.95;3.65;;;20.20;97.30;;;;;;4996422;28;20132;-74
2023/06/14 08:39:01;;;;;;;6.07;3.42;;;20.20;96.70;;;;;;4997696;28;20037;-74
2023/06/14 08:41:29;;;;;;;10.52;3.45;;;20.20;96.00;;;;;;4996963;28;20044;-74
2023/06/14 08:43:58;;;;;;;5.93;3.30;;;20.30;97.10;;;;;;4993250;28;20049;-74
2023/06/14 08:46:28;;;;;;;7.88;3.20;;;20.40;97.50;;;;;;4995525;28;20062;-74
2023/06/14 08:48:58;;;;;;;6.15;3.65;;;20.40;96.60;;;;;;4998151;28;20119;-75
2023/06/14 08:51:26;;;;;;;10.23;4.15;;;20.50;96.60;;;;;;4997276;28;20048;-74
2023/06/14 08:53:57;;;;;;;12.88;3.13;;;20.70;96.80;;;;;;4993313;28;20367;-74
2023/06/14 08:56:27;;;;;;;7.72;3.05;;;20.70;97.40;;;;;;4996012;28;20041;-74
2023/06/14 08:58:53;;;;;;;8.65;3.58;;;20.90;95.20;;;;;;4998081;28;20038;-75
2023/06/14 09:01:21;;;;;;;6.55;3.22;;;21.00;96.00;;;;;;4995469;28;20034;-75
2023/06/14 09:03:48;;;;;;;8.90;3.30;;;21.00;95.00;;;;;;4994144;28;20088;-74
2023/06/14 09:06:13;;;;;;;6.03;2.90;;;21.10;94.60;;;;;;4995841;28;20040;-74
2023/06/14 09:08:43;;;;;;;12.00;3.80;;;21.20;95.20;;;;;;4996844;28;21439;-75
2023/06/14 09:11:12;;;;;;;8.60;3.05;;;21.20;94.20;;;;;;4996979;28;20885;-74
2023/06/14 09:13:38;;;;;;;6.80;3.45;;;21.30;94.60;;;;;;4995604;28;20041;-75
2023/06/14 09:16:04;;;;;;;6.53;3.25;;;21.50;95.60;;;;;;4995805;28;20048;-75
2023/06/14 09:18:43;;;;;;;6.40;3.15;;;21.70;95.10;;;;;;4979025;28;20493;-75
2023/06/14 09:21:09;;;;;;;8.73;3.17;;;21.60;94.30;;;;;;4994955;28;20402;-75
2023/06/14 09:23:39;;;;;;;7.45;3.03;;;21.60;93.90;;;;;;4996657;28;20026;-75
2023/06/14 09:26:12;;;;;;;4.93;2.90;;;21.70;93.10;;;;;;4996110;28;20510;-75
2023/06/14 09:28:43;;;;;;;12.38;3.20;;;21.90;94.60;;;;;;4996811;28;20180;-74
2023/06/14 09:31:09;;;;;;;4.82;3.10;;;21.90;92.60;;;;;;4995669;28;20041;-74
2023/06/14 09:33:35;;;;;;;5.30;3.08;;;22.10;92.70;;;;;;4998809;28;20029;-75
2023/06/14 09:36:01;;;;;;;10.73;2.97;;;22.40;92.60;;;;;;4994139;28;20074;-74
2023/06/14 09:38:26;;;;;;;6.55;2.60;;;22.50;91.80;;;;;;4994691;28;20050;-74
2023/06/14 09:40:52;;;;;;;3.17;2.55;;;22.80;91.30;;;;;;4997584;28;20057;-75
2023/06/14 09:43:19;;;;;;;4.50;2.80;;;22.90;88.00;;;;;;4997644;28;20025;-74
2023/06/14 09:45:48;;;;;;;6.65;2.65;;;23.20;85.90;;;;;;4994102;28;20046;-74
2023/06/14 09:48:17;;;;;;;6.50;3.20;;;23.50;85.60;;;;;;4996088;28;20030;-74
2023/06/14 09:50:47;;;;;;;6.78;2.97;;;23.80;78.90;;;;;;4996209;28;20037;-75
2023/06/14 09:53:14;;;;;;;8.85;2.90;;;23.90;80.60;;;;;;4997444;28;20038;-74
2023/06/14 09:55:41;;;;;;;7.28;2.85;;;24.00;79.30;;;;;;4993306;28;20034;-74
2023/06/14 09:58:09;;;;;;;5.07;2.70;;;24.00;80.10;;;;;;4995260;28;20084;-74
2023/06/14 10:00:36;;;;;;;5.85;3.20;;;24.10;79.40;;;;;;4997752;28;20022;-74
2023/06/14 10:03:20;;;;;;;6.30;2.67;;;24.30;81.10;;;;;;4996521;28;20108;-74
2023/06/14 10:05:49;;;;;;;4.93;3.40;;;24.70;81.40;;;;;;4992759;28;20073;-74
2023/06/14 10:08:18;;;;;;;6.30;3.00;;;24.90;81.10;;;;;;4995099;28;20077;-74
2023/06/14 10:10:44;;;;;;;5.70;2.80;;;25.30;77.50;;;;;;4994689;28;20081;-74
2023/06/14 10:13:11;;;;;;;6.95;3.10;;;25.40;78.40;;;;;;4995427;28;20039;-74
2023/06/14 10:16:07;;;;;;;11.55;3.38;;;25.40;77.40;;;;;;4994397;28;20034;-75
2023/06/14 10:18:45;;;;;;;8.02;2.95;;;25.50;80.80;;;;;;4996136;28;20033;-76
2023/06/14 10:21:21;;;;;;;5.45;3.00;;;25.40;77.80;;;;;;4995858;28;20088;-74
2023/06/14 10:23:48;;;;;;;4.80;2.60;;;25.70;78.10;;;;;;4995015;28;20117;-75
2023/06/14 10:26:21;;;;;;;5.88;2.95;;;25.60;81.10;;;;;;4995483;28;20388;-74
2023/06/14 10:29:01;;;;;;;7.07;3.28;;;25.70;78.50;;;;;;4995063;28;20182;-75
2023/06/14 10:31:57;;;;;;;8.45;3.42;;;25.40;77.70;;;;;;4994291;28;20038;-74
2023/06/14 10:34:27;;;;;;;5.80;3.25;;;24.60;79.80;;;;;;4978691;28;20049;-75
2023/06/14 10:37:12;;;;;;;4.00;3.05;;;24.20;80.10;;;;;;4995413;28;20177;-74
2023/06/14 10:39:46;;;;;;;4.35;2.67;;;23.90;80.30;;;;;;4994874;28;20037;-74
2023/06/14 10:42:12;;;;;;;8.15;3.25;;;23.60;81.70;;;;;;4994596;28;20057;-75
2023/06/14 10:44:39;;;;;;;4.68;2.92;;;23.40;80.30;;;;;;4996521;28;20080;-76
2023/06/14 10:47:09;;;;;;;6.05;2.70;;;23.00;81.10;;;;;;4994321;28;20030;-76
2023/06/14 10:49:43;;;;;;;4.78;3.00;;;22.70;81.10;;;;;;4992857;28;20495;-76
2023/06/14 10:52:16;;;;;;;5.13;3.20;;;22.50;80.40;;;;;;4993513;28;20076;-76
2023/06/14 10:55:09;;;;;;;4.07;3.10;;;22.40;84.00;;;;;;4994836;28;20030;-76
2023/06/14 10:57:58;;;;;;;6.18;3.05;;;22.70;85.30;;;;;;4994558;28;20030;-75
2023/06/14 11:00:27;;;;;;;4.32;3.05;;;23.30;81.60;;;;;;4994884;28;20092;-76
2023/06/14 11:03:21;;;;;;;5.43;2.65;;;23.70;80.40;;;;;;4994771;28;20718;-76
2023/06/14 11:05:55;;;;;;;7.72;2.90;;;23.80;79.50;;;;;;4995445;28;20030;-76
2023/06/14 11:08:58;;;;;;;4.35;3.08;;;23.90;78.80;;;;;;4996641;28;20560;-77
2023/06/14 11:11:31;;;;;;;5.78;3.05;;;24.20;78.70;;;;;;4997985;28;20042;-75
2023/06/14 11:13:57;;;;;;;5.30;3.03;;;24.70;78.10;;;;;;4998097;28;20022;-74
2023/06/14 11:16:26;;;;;;;5.45;3.00;;;25.00;78.00;;;;;;4979739;28;20044;-74
2023/06/14 11:18:51;;;;;;;5.38;3.13;;;25.20;76.30;;;;;;4997781;28;20073;-75
2023/06/14 11:21:18;;;;;;;5.47;2.65;;;25.60;73.00;;;;;;4998613;28;20341;-75
2023/06/14 11:23:52;;;;;;;7.28;3.30;;;25.70;74.90;;;;;;4996993;28;20068;-75
2023/06/14 11:26:28;;;;;;;;;;;26.00;72.30;;;;;;4998532;28;20034;-74
2023/06/14 11:28:57;;;;;;;;;;;26.00;71.70;;;;;;4997781;28;20005;-75
2023/06/14 11:31:23;;;;;;;4.53;3.30;;;26.00;73.50;;;;;;4997395;28;19932;-74
2023/06/14 11:33:55;;;;;;;4.72;2.70;;;26.20;74.80;;;;;;4997389;28;20387;-74
2023/06/14 11:36:20;;;;;;;5.00;3.00;;;26.30;69.80;;;;;;4998040;28;20069;-74
2023/06/14 11:38:46;;;;;;;5.50;3.00;;;26.50;70.60;;;;;;4998024;28;20740;-74
2023/06/14 11:41:11;;;;;;;5.47;2.90;;;26.80;71.30;;;;;;4997949;28;20034;-74
2023/06/14 11:43:37;;;;;;;6.88;3.38;;;27.10;72.10;;;;;;4997747;28;20048;-74
2023/06/14 11:46:03;;;;;;;5.55;2.80;;;27.30;69.70;;;;;;4997570;28;20029;-74
2023/06/14 11:48:42;;;;;;;5.63;2.75;;;27.20;67.80;;;;;;4997909;28;20202;-74
2023/06/14 11:51:07;;;;;;;4.72;3.00;;;27.10;69.40;;;;;;4998070;28;20038;-73
2023/06/14 11:53:33;;;;;;;4.85;3.00;;;27.00;70.60;;;;;;4993773;28;20041;-73
2023/06/14 11:55:59;;;;;;;5.13;2.80;;;27.10;68.60;;;;;;4993904;28;20038;-74
2023/06/14 11:58:27;;;;;;;5.50;3.05;;;27.30;68.10;;;;;;4996365;28;20044;-74
2023/06/14 12:00:53;;;;;;;5.07;2.88;;;27.60;64.40;;;;;;4998112;28;20037;-74
2023/06/14 12:03:25;;;;;;;4.38;2.97;;;27.80;68.20;;;;;;4995730;28;20042;-73
2023/06/14 12:06:01;;;;;;;4.88;3.15;;;27.90;67.30;;;;;;4996326;28;20037;-74
2023/06/14 12:08:38;;;;;;;3.72;2.80;;;28.30;68.20;;;;;;4995927;28;20072;-72
2023/06/14 12:11:05;;;;;;;8.77;3.90;;;28.10;64.70;;;;;;4995667;28;20064;-74
2023/06/14 12:13:31;;;;;;;4.22;2.72;;;27.80;65.80;;;;;;4995906;28;20030;-74
2023/06/14 12:15:57;;;;;;;4.40;2.78;;;27.70;66.60;;;;;;4995377;28;20778;-74
2023/06/14 12:18:34;;;;;;;5.28;2.90;;;27.40;65.90;;;;;;4995444;28;20398;-73
2023/06/14 12:21:02;;;;;;;9.00;3.05;;;27.20;68.90;;;;;;4995328;28;20620;-74
2023/06/14 12:23:39;;;;;;;11.18;3.50;;;27.30;67.40;;;;;;4996644;28;20045;-74
2023/06/14 12:26:05;;;;;;;7.22;3.40;;;27.30;68.40;;;;;;4994672;28;20034;-73
2023/06/14 12:28:31;;;;;;;9.13;3.15;;;27.70;67.10;;;;;;4995047;28;20837;-73
2023/06/14 12:30:58;;;;;;;5.28;3.08;;;27.60;65.10;;;;;;4994300;28;20037;-74
2023/06/14 12:33:24;;;;;;;6.28;3.10;;;27.60;64.50;;;;;;4994742;28;20041;-74
2023/06/14 12:35:51;;;;;;;6.78;3.13;;;27.60;63.60;;;;;;4995334;28;20052;-74
2023/06/14 12:38:16;;;;;;;5.05;3.10;;;27.40;66.60;;;;;;4994092;28;20062;-74
2023/06/14 12:40:42;;;;;;;10.38;3.70;;;27.60;69.00;;;;;;4995579;28;20129;-74
2023/06/14 12:43:08;;;;;;;6.65;3.13;;;27.70;66.40;;;;;;4995850;28;20034;-74
2023/06/14 12:45:33;;;;;;;4.50;2.90;;;27.70;65.90;;;;;;4994409;28;20941;-74
2023/06/14 12:47:59;;;;;;;6.70;2.90;;;27.60;65.80;;;;;;4994275;28;20486;-73